Terminal Aerodrome Forecast
Issued by NWS Wilmington, OH

Current Version | Previous Version | Text Only | Print | Product List | Glossary Off
Versions: 1 2 3 4 5 6 7 8 9 10 11 12 13 14 15

000
FTUS41 KILN 210841 AAA
TAFDAY
TAF AMD
KDAY 210841Z 2109/2206 34006KT 1SM BR OVC004
      TEMPO 2109/2112 1/4SM FG OVC002
     FM211200 36008KT 1SM BR OVC006
     FM211400 36006KT 4SM BR OVC012
     FM211600 36006KT P6SM BKN022
     FM211800 34007KT P6SM BKN200
     FM220000 34010KT P6SM BKN100=

USA.gov is the U.S. government's official web portal to all federal, state and local government web resources and services.